sensor_id;sensor_type;location;lat;lon;timestamp;P1;durP1;ratioP1;P2;durP2;ratioP2
14975;SDS011;7584;60.468;25.126;2023-07-16T00:00:27;5.33;;;2.43;;
14975;SDS011;7584;60.468;25.126;2023-07-16T00:02:52;5.00;;;2.90;;
14975;SDS011;7584;60.468;25.126;2023-07-16T00:05:17;6.97;;;3.37;;
14975;SDS011;7584;60.468;25.126;2023-07-16T00:07:43;7.70;;;3.10;;
14975;SDS011;7584;60.468;25.126;2023-07-16T00:10:08;5.87;;;3.70;;
14975;SDS011;7584;60.468;25.126;2023-07-16T00:12:34;3.70;;;3.03;;
14975;SDS011;7584;60.468;25.126;2023-07-16T00:14:59;5.97;;;3.27;;
14975;SDS011;7584;60.468;25.126;2023-07-16T00:17:24;5.97;;;3.30;;
14975;SDS011;7584;60.468;25.126;2023-07-16T00:19:50;6.23;;;3.17;;
14975;SDS011;7584;60.468;25.126;2023-07-16T00:22:15;4.53;;;2.80;;
14975;SDS011;7584;60.468;25.126;2023-07-16T00:24:40;4.07;;;3.30;;
14975;SDS011;7584;60.468;25.126;2023-07-16T00:27:05;3.97;;;2.83;;
14975;SDS011;7584;60.468;25.126;2023-07-16T00:29:31;3.70;;;3.00;;
14975;SDS011;7584;60.468;25.126;2023-07-16T00:31:56;3.77;;;2.90;;
14975;SDS011;7584;60.468;25.126;2023-07-16T00:34:21;4.73;;;3.07;;
14975;SDS011;7584;60.468;25.126;2023-07-16T00:36:47;7.43;;;3.10;;
14975;SDS011;7584;60.468;25.126;2023-07-16T00:39:12;3.87;;;2.73;;
14975;SDS011;7584;60.468;25.126;2023-07-16T00:41:37;4.93;;;2.63;;
14975;SDS011;7584;60.468;25.126;2023-07-16T00:44:02;3.93;;;2.83;;
14975;SDS011;7584;60.468;25.126;2023-07-16T00:46:28;10.07;;;2.83;;
14975;SDS011;7584;60.468;25.126;2023-07-16T00:48:53;3.73;;;2.30;;
14975;SDS011;7584;60.468;25.126;2023-07-16T00:51:19;4.17;;;2.57;;
14975;SDS011;7584;60.468;25.126;2023-07-16T00:53:47;7.97;;;2.23;;
14975;SDS011;7584;60.468;25.126;2023-07-16T00:56:12;4.03;;;2.63;;
14975;SDS011;7584;60.468;25.126;2023-07-16T00:58:40;6.00;;;2.97;;
14975;SDS011;7584;60.468;25.126;2023-07-16T01:01:06;3.90;;;2.33;;
14975;SDS011;7584;60.468;25.126;2023-07-16T01:03:31;4.87;;;2.90;;
14975;SDS011;7584;60.468;25.126;2023-07-16T01:08:41;4.17;;;2.80;;
14975;SDS011;7584;60.468;25.126;2023-07-16T01:11:07;3.53;;;2.70;;
14975;SDS011;7584;60.468;25.126;2023-07-16T01:13:34;7.07;;;2.93;;
14975;SDS011;7584;60.468;25.126;2023-07-16T01:15:59;3.67;;;2.97;;
14975;SDS011;7584;60.468;25.126;2023-07-16T01:18:24;3.83;;;3.10;;
14975;SDS011;7584;60.468;25.126;2023-07-16T01:20:50;3.33;;;2.90;;
14975;SDS011;7584;60.468;25.126;2023-07-16T01:31:28;4.10;;;2.90;;
14975;SDS011;7584;60.468;25.126;2023-07-16T01:33:54;8.77;;;3.13;;
14975;SDS011;7584;60.468;25.126;2023-07-16T01:36:19;3.70;;;2.80;;
14975;SDS011;7584;60.468;25.126;2023-07-16T01:38:45;4.30;;;2.83;;
14975;SDS011;7584;60.468;25.126;2023-07-16T01:41:10;3.63;;;2.70;;
14975;SDS011;7584;60.468;25.126;2023-07-16T01:43:36;3.97;;;3.07;;
14975;SDS011;7584;60.468;25.126;2023-07-16T01:46:01;8.20;;;3.07;;
14975;SDS011;7584;60.468;25.126;2023-07-16T01:48:30;3.73;;;2.67;;
14975;SDS011;7584;60.468;25.126;2023-07-16T01:50:56;7.20;;;2.70;;
14975;SDS011;7584;60.468;25.126;2023-07-16T01:53:21;8.10;;;2.77;;
14975;SDS011;7584;60.468;25.126;2023-07-16T01:55:46;5.87;;;3.07;;
14975;SDS011;7584;60.468;25.126;2023-07-16T01:58:12;5.00;;;3.00;;
14975;SDS011;7584;60.468;25.126;2023-07-16T02:00:37;5.80;;;2.80;;
14975;SDS011;7584;60.468;25.126;2023-07-16T02:03:02;5.60;;;2.57;;
14975;SDS011;7584;60.468;25.126;2023-07-16T02:05:28;7.57;;;3.10;;
14975;SDS011;7584;60.468;25.126;2023-07-16T02:07:53;5.83;;;3.00;;
14975;SDS011;7584;60.468;25.126;2023-07-16T02:10:18;4.57;;;2.80;;
14975;SDS011;7584;60.468;25.126;2023-07-16T02:12:43;5.27;;;3.13;;
14975;SDS011;7584;60.468;25.126;2023-07-16T02:15:09;7.83;;;3.00;;
14975;SDS011;7584;60.468;25.126;2023-07-16T02:17:34;5.83;;;2.70;;
14975;SDS011;7584;60.468;25.126;2023-07-16T02:20:00;3.83;;;2.87;;
14975;SDS011;7584;60.468;25.126;2023-07-16T02:22:25;4.87;;;2.57;;
14975;SDS011;7584;60.468;25.126;2023-07-16T02:24:50;6.03;;;2.77;;
14975;SDS011;7584;60.468;25.126;2023-07-16T02:27:15;4.63;;;2.70;;
14975;SDS011;7584;60.468;25.126;2023-07-16T02:29:41;3.80;;;2.90;;
14975;SDS011;7584;60.468;25.126;2023-07-16T02:32:06;6.17;;;2.70;;
14975;SDS011;7584;60.468;25.126;2023-07-16T02:34:32;3.57;;;2.77;;
14975;SDS011;7584;60.468;25.126;2023-07-16T02:36:57;4.53;;;2.77;;
14975;SDS011;7584;60.468;25.126;2023-07-16T02:39:23;4.13;;;2.73;;
14975;SDS011;7584;60.468;25.126;2023-07-16T02:41:49;7.63;;;3.10;;
14975;SDS011;7584;60.468;25.126;2023-07-16T02:44:14;5.33;;;2.80;;
14975;SDS011;7584;60.468;25.126;2023-07-16T02:46:39;5.80;;;2.70;;
14975;SDS011;7584;60.468;25.126;2023-07-16T02:49:04;4.33;;;2.67;;
14975;SDS011;7584;60.468;25.126;2023-07-16T02:51:30;4.97;;;3.10;;
14975;SDS011;7584;60.468;25.126;2023-07-16T02:53:55;3.27;;;2.60;;
14975;SDS011;7584;60.468;25.126;2023-07-16T02:56:20;4.30;;;2.80;;
14975;SDS011;7584;60.468;25.126;2023-07-16T02:58:46;4.57;;;2.83;;
14975;SDS011;7584;60.468;25.126;2023-07-16T03:01:12;6.43;;;3.23;;
14975;SDS011;7584;60.468;25.126;2023-07-16T03:03:37;5.53;;;3.37;;
14975;SDS011;7584;60.468;25.126;2023-07-16T03:06:02;3.47;;;2.40;;
14975;SDS011;7584;60.468;25.126;2023-07-16T03:08:28;4.73;;;2.70;;
14975;SDS011;7584;60.468;25.126;2023-07-16T03:10:55;4.17;;;2.33;;
14975;SDS011;7584;60.468;25.126;2023-07-16T03:13:20;5.30;;;2.30;;
14975;SDS011;7584;60.468;25.126;2023-07-16T03:15:46;4.20;;;2.70;;
14975;SDS011;7584;60.468;25.126;2023-07-16T03:18:11;3.30;;;2.60;;
14975;SDS011;7584;60.468;25.126;2023-07-16T03:20:36;4.03;;;2.57;;
14975;SDS011;7584;60.468;25.126;2023-07-16T03:23:02;4.33;;;2.53;;
14975;SDS011;7584;60.468;25.126;2023-07-16T03:25:27;3.50;;;2.27;;
14975;SDS011;7584;60.468;25.126;2023-07-16T03:27:52;4.67;;;3.20;;
14975;SDS011;7584;60.468;25.126;2023-07-16T03:30:18;3.90;;;3.13;;
14975;SDS011;7584;60.468;25.126;2023-07-16T03:32:43;4.77;;;2.47;;
14975;SDS011;7584;60.468;25.126;2023-07-16T03:35:08;4.50;;;2.80;;
14975;SDS011;7584;60.468;25.126;2023-07-16T03:37:34;4.90;;;2.70;;
14975;SDS011;7584;60.468;25.126;2023-07-16T03:40:11;5.73;;;3.00;;
14975;SDS011;7584;60.468;25.126;2023-07-16T03:42:37;3.87;;;2.40;;
14975;SDS011;7584;60.468;25.126;2023-07-16T03:45:02;7.30;;;2.90;;
14975;SDS011;7584;60.468;25.126;2023-07-16T03:47:27;3.03;;;2.53;;
14975;SDS011;7584;60.468;25.126;2023-07-16T03:49:53;3.60;;;2.13;;
14975;SDS011;7584;60.468;25.126;2023-07-16T03:52:18;3.40;;;2.63;;
14975;SDS011;7584;60.468;25.126;2023-07-16T03:54:43;3.23;;;2.40;;
14975;SDS011;7584;60.468;25.126;2023-07-16T03:57:08;3.00;;;2.50;;
14975;SDS011;7584;60.468;25.126;2023-07-16T03:59:34;6.13;;;2.70;;
14975;SDS011;7584;60.468;25.126;2023-07-16T04:01:59;5.77;;;3.00;;
14975;SDS011;7584;60.468;25.126;2023-07-16T04:04:24;3.53;;;2.40;;
14975;SDS011;7584;60.468;25.126;2023-07-16T04:06:50;3.83;;;2.37;;
14975;SDS011;7584;60.468;25.126;2023-07-16T04:09:15;2.53;;;2.33;;
14975;SDS011;7584;60.468;25.126;2023-07-16T04:11:40;3.33;;;2.23;;
14975;SDS011;7584;60.468;25.126;2023-07-16T04:14:06;4.67;;;2.80;;
14975;SDS011;7584;60.468;25.126;2023-07-16T04:16:32;3.63;;;2.87;;
14975;SDS011;7584;60.468;25.126;2023-07-16T04:18:57;3.40;;;2.47;;
14975;SDS011;7584;60.468;25.126;2023-07-16T04:21:22;3.07;;;2.73;;
14975;SDS011;7584;60.468;25.126;2023-07-16T04:23:47;3.63;;;2.63;;
14975;SDS011;7584;60.468;25.126;2023-07-16T04:26:13;2.83;;;2.40;;
14975;SDS011;7584;60.468;25.126;2023-07-16T04:28:38;3.90;;;2.50;;
14975;SDS011;7584;60.468;25.126;2023-07-16T04:31:04;3.60;;;2.30;;
14975;SDS011;7584;60.468;25.126;2023-07-16T04:33:29;3.97;;;2.20;;
14975;SDS011;7584;60.468;25.126;2023-07-16T04:35:55;2.78;;;2.13;;
14975;SDS011;7584;60.468;25.126;2023-07-16T04:38:20;4.80;;;2.60;;
14975;SDS011;7584;60.468;25.126;2023-07-16T04:40:45;4.03;;;2.10;;
14975;SDS011;7584;60.468;25.126;2023-07-16T04:43:10;2.38;;;2.00;;
14975;SDS011;7584;60.468;25.126;2023-07-16T04:45:36;3.80;;;2.05;;
14975;SDS011;7584;60.468;25.126;2023-07-16T04:48:01;3.92;;;2.00;;
14975;SDS011;7584;60.468;25.126;2023-07-16T04:50:26;3.35;;;1.60;;
14975;SDS011;7584;60.468;25.126;2023-07-16T04:52:52;2.53;;;1.42;;
14975;SDS011;7584;60.468;25.126;2023-07-16T04:55:17;3.80;;;2.00;;
14975;SDS011;7584;60.468;25.126;2023-07-16T04:57:42;2.13;;;1.63;;
14975;SDS011;7584;60.468;25.126;2023-07-16T05:00:08;2.15;;;1.42;;
14975;SDS011;7584;60.468;25.126;2023-07-16T05:02:33;3.05;;;1.70;;
14975;SDS011;7584;60.468;25.126;2023-07-16T05:04:58;3.45;;;1.70;;
14975;SDS011;7584;60.468;25.126;2023-07-16T05:07:24;2.03;;;1.60;;
14975;SDS011;7584;60.468;25.126;2023-07-16T05:09:49;5.70;;;1.60;;
14975;SDS011;7584;60.468;25.126;2023-07-16T05:12:14;3.28;;;1.50;;
14975;SDS011;7584;60.468;25.126;2023-07-16T05:14:46;2.08;;;1.48;;
14975;SDS011;7584;60.468;25.126;2023-07-16T05:17:12;2.80;;;1.38;;
14975;SDS011;7584;60.468;25.126;2023-07-16T05:19:38;1.65;;;1.30;;
14975;SDS011;7584;60.468;25.126;2023-07-16T05:22:03;2.47;;;1.60;;
14975;SDS011;7584;60.468;25.126;2023-07-16T05:24:28;1.80;;;1.50;;
14975;SDS011;7584;60.468;25.126;2023-07-16T05:26:53;1.67;;;1.10;;
14975;SDS011;7584;60.468;25.126;2023-07-16T05:29:19;2.67;;;1.10;;
14975;SDS011;7584;60.468;25.126;2023-07-16T05:31:44;2.60;;;1.20;;
14975;SDS011;7584;60.468;25.126;2023-07-16T05:34:11;2.05;;;1.23;;
14975;SDS011;7584;60.468;25.126;2023-07-16T05:36:36;1.13;;;1.00;;
14975;SDS011;7584;60.468;25.126;2023-07-16T05:39:02;2.30;;;1.38;;
14975;SDS011;7584;60.468;25.126;2023-07-16T05:41:27;3.22;;;1.17;;
14975;SDS011;7584;60.468;25.126;2023-07-16T05:43:53;1.80;;;1.00;;
14975;SDS011;7584;60.468;25.126;2023-07-16T05:46:18;4.40;;;2.45;;
14975;SDS011;7584;60.468;25.126;2023-07-16T05:48:43;1.52;;;1.08;;
14975;SDS011;7584;60.468;25.126;2023-07-16T05:51:08;1.60;;;1.23;;
14975;SDS011;7584;60.468;25.126;2023-07-16T05:53:34;1.38;;;0.90;;
14975;SDS011;7584;60.468;25.126;2023-07-16T05:55:59;2.20;;;1.13;;
14975;SDS011;7584;60.468;25.126;2023-07-16T05:58:24;1.98;;;1.08;;
14975;SDS011;7584;60.468;25.126;2023-07-16T06:00:50;1.42;;;1.00;;
14975;SDS011;7584;60.468;25.126;2023-07-16T06:03:15;3.70;;;1.20;;
14975;SDS011;7584;60.468;25.126;2023-07-16T06:05:42;1.95;;;1.20;;
14975;SDS011;7584;60.468;25.126;2023-07-16T06:08:07;1.70;;;0.85;;
14975;SDS011;7584;60.468;25.126;2023-07-16T06:10:36;0.95;;;0.80;;
14975;SDS011;7584;60.468;25.126;2023-07-16T06:13:01;1.77;;;0.95;;
14975;SDS011;7584;60.468;25.126;2023-07-16T06:15:27;1.20;;;0.93;;
14975;SDS011;7584;60.468;25.126;2023-07-16T06:17:52;1.30;;;0.80;;
14975;SDS011;7584;60.468;25.126;2023-07-16T06:20:17;1.27;;;0.90;;
14975;SDS011;7584;60.468;25.126;2023-07-16T06:22:43;2.95;;;1.23;;
14975;SDS011;7584;60.468;25.126;2023-07-16T06:25:08;1.70;;;0.90;;
14975;SDS011;7584;60.468;25.126;2023-07-16T06:27:35;2.78;;;1.23;;
14975;SDS011;7584;60.468;25.126;2023-07-16T06:30:01;2.15;;;1.13;;
14975;SDS011;7584;60.468;25.126;2023-07-16T06:32:26;3.40;;;1.00;;
14975;SDS011;7584;60.468;25.126;2023-07-16T06:34:51;1.65;;;0.82;;
14975;SDS011;7584;60.468;25.126;2023-07-16T06:37:17;1.50;;;0.88;;
14975;SDS011;7584;60.468;25.126;2023-07-16T06:39:42;1.52;;;0.80;;
14975;SDS011;7584;60.468;25.126;2023-07-16T06:42:07;1.30;;;0.88;;
14975;SDS011;7584;60.468;25.126;2023-07-16T06:44:33;1.52;;;0.90;;
14975;SDS011;7584;60.468;25.126;2023-07-16T06:46:58;1.80;;;1.08;;
14975;SDS011;7584;60.468;25.126;2023-07-16T06:49:23;1.45;;;0.75;;
14975;SDS011;7584;60.468;25.126;2023-07-16T06:51:48;1.40;;;0.80;;
14975;SDS011;7584;60.468;25.126;2023-07-16T06:54:14;1.52;;;1.00;;
14975;SDS011;7584;60.468;25.126;2023-07-16T06:56:39;2.00;;;1.10;;
14975;SDS011;7584;60.468;25.126;2023-07-16T06:59:04;2.47;;;0.85;;
14975;SDS011;7584;60.468;25.126;2023-07-16T07:01:30;1.30;;;0.75;;
14975;SDS011;7584;60.468;25.126;2023-07-16T07:03:55;1.50;;;1.00;;
14975;SDS011;7584;60.468;25.126;2023-07-16T07:06:21;2.85;;;1.00;;
14975;SDS011;7584;60.468;25.126;2023-07-16T07:08:47;2.25;;;0.98;;
14975;SDS011;7584;60.468;25.126;2023-07-16T07:11:12;1.42;;;1.00;;
14975;SDS011;7584;60.468;25.126;2023-07-16T07:13:37;1.63;;;0.80;;
14975;SDS011;7584;60.468;25.126;2023-07-16T07:16:03;1.77;;;0.80;;
14975;SDS011;7584;60.468;25.126;2023-07-16T07:18:28;3.15;;;0.90;;
14975;SDS011;7584;60.468;25.126;2023-07-16T07:20:53;1.35;;;1.00;;
14975;SDS011;7584;60.468;25.126;2023-07-16T07:23:19;2.25;;;0.88;;
14975;SDS011;7584;60.468;25.126;2023-07-16T07:25:48;1.27;;;0.90;;
14975;SDS011;7584;60.468;25.126;2023-07-16T07:28:14;1.35;;;0.68;;
14975;SDS011;7584;60.468;25.126;2023-07-16T07:30:39;1.17;;;0.73;;
14975;SDS011;7584;60.468;25.126;2023-07-16T07:33:04;3.17;;;1.00;;
14975;SDS011;7584;60.468;25.126;2023-07-16T07:35:30;2.05;;;1.00;;
14975;SDS011;7584;60.468;25.126;2023-07-16T07:37:55;1.52;;;0.95;;
14975;SDS011;7584;60.468;25.126;2023-07-16T07:40:20;0.85;;;0.60;;
14975;SDS011;7584;60.468;25.126;2023-07-16T07:42:45;1.10;;;1.00;;
14975;SDS011;7584;60.468;25.126;2023-07-16T07:45:11;1.83;;;0.80;;
14975;SDS011;7584;60.468;25.126;2023-07-16T07:47:36;1.17;;;0.75;;
14975;SDS011;7584;60.468;25.126;2023-07-16T07:50:01;2.42;;;0.80;;
14975;SDS011;7584;60.468;25.126;2023-07-16T07:52:27;2.63;;;0.75;;
14975;SDS011;7584;60.468;25.126;2023-07-16T07:54:52;0.70;;;0.50;;
14975;SDS011;7584;60.468;25.126;2023-07-16T07:57:19;1.13;;;0.82;;
14975;SDS011;7584;60.468;25.126;2023-07-16T07:59:44;1.80;;;0.88;;
14975;SDS011;7584;60.468;25.126;2023-07-16T08:02:09;0.85;;;0.70;;
14975;SDS011;7584;60.468;25.126;2023-07-16T08:04:35;0.93;;;0.65;;
14975;SDS011;7584;60.468;25.126;2023-07-16T08:07:00;1.98;;;0.93;;
14975;SDS011;7584;60.468;25.126;2023-07-16T08:09:26;1.58;;;0.95;;
14975;SDS011;7584;60.468;25.126;2023-07-16T08:11:51;2.22;;;0.75;;
14975;SDS011;7584;60.468;25.126;2023-07-16T08:14:16;1.73;;;1.00;;
14975;SDS011;7584;60.468;25.126;2023-07-16T08:16:41;1.30;;;0.70;;
14975;SDS011;7584;60.468;25.126;2023-07-16T08:19:07;0.85;;;0.70;;
14975;SDS011;7584;60.468;25.126;2023-07-16T08:21:33;2.15;;;0.90;;
14975;SDS011;7584;60.468;25.126;2023-07-16T08:23:59;2.58;;;0.90;;
14975;SDS011;7584;60.468;25.126;2023-07-16T08:26:24;2.70;;;1.00;;
14975;SDS011;7584;60.468;25.126;2023-07-16T08:28:49;1.92;;;1.00;;
14975;SDS011;7584;60.468;25.126;2023-07-16T08:31:15;1.63;;;0.90;;
14975;SDS011;7584;60.468;25.126;2023-07-16T08:33:40;0.73;;;0.73;;
14975;SDS011;7584;60.468;25.126;2023-07-16T08:36:05;1.30;;;0.60;;
14975;SDS011;7584;60.468;25.126;2023-07-16T08:38:31;1.40;;;0.90;;
14975;SDS011;7584;60.468;25.126;2023-07-16T08:40:56;1.42;;;0.80;;
14975;SDS011;7584;60.468;25.126;2023-07-16T08:43:21;1.25;;;0.80;;
14975;SDS011;7584;60.468;25.126;2023-07-16T08:45:47;1.85;;;0.70;;
14975;SDS011;7584;60.468;25.126;2023-07-16T08:48:13;1.75;;;0.90;;
14975;SDS011;7584;60.468;25.126;2023-07-16T08:50:38;0.95;;;0.75;;
14975;SDS011;7584;60.468;25.126;2023-07-16T08:53:07;1.10;;;0.70;;
14975;SDS011;7584;60.468;25.126;2023-07-16T08:55:32;2.30;;;0.80;;
14975;SDS011;7584;60.468;25.126;2023-07-16T08:57:58;2.22;;;0.70;;
14975;SDS011;7584;60.468;25.126;2023-07-16T09:00:24;2.35;;;0.98;;
14975;SDS011;7584;60.468;25.126;2023-07-16T09:02:51;1.27;;;0.75;;
14975;SDS011;7584;60.468;25.126;2023-07-16T09:05:17;1.63;;;0.90;;
14975;SDS011;7584;60.468;25.126;2023-07-16T09:07:44;1.02;;;0.70;;
14975;SDS011;7584;60.468;25.126;2023-07-16T09:10:11;1.70;;;0.90;;
14975;SDS011;7584;60.468;25.126;2023-07-16T09:12:41;1.40;;;0.82;;
14975;SDS011;7584;60.468;25.126;2023-07-16T09:15:06;2.33;;;0.95;;
14975;SDS011;7584;60.468;25.126;2023-07-16T09:17:32;0.90;;;0.70;;
14975;SDS011;7584;60.468;25.126;2023-07-16T09:19:57;4.22;;;0.68;;
14975;SDS011;7584;60.468;25.126;2023-07-16T09:22:22;1.50;;;0.70;;
14975;SDS011;7584;60.468;25.126;2023-07-16T09:24:48;1.40;;;0.60;;
14975;SDS011;7584;60.468;25.126;2023-07-16T09:27:13;1.00;;;0.70;;
14975;SDS011;7584;60.468;25.126;2023-07-16T09:29:38;3.42;;;1.00;;
14975;SDS011;7584;60.468;25.126;2023-07-16T09:32:04;1.63;;;0.90;;
14975;SDS011;7584;60.468;25.126;2023-07-16T09:34:32;1.48;;;0.80;;
14975;SDS011;7584;60.468;25.126;2023-07-16T09:36:59;2.15;;;0.80;;
14975;SDS011;7584;60.468;25.126;2023-07-16T09:39:25;2.45;;;0.88;;
14975;SDS011;7584;60.468;25.126;2023-07-16T09:41:50;1.30;;;0.68;;
14975;SDS011;7584;60.468;25.126;2023-07-16T09:44:16;1.20;;;0.80;;
14975;SDS011;7584;60.468;25.126;2023-07-16T09:46:42;1.10;;;0.70;;
14975;SDS011;7584;60.468;25.126;2023-07-16T09:49:08;2.65;;;0.68;;
14975;SDS011;7584;60.468;25.126;2023-07-16T09:51:34;1.80;;;1.05;;
14975;SDS011;7584;60.468;25.126;2023-07-16T09:54:03;3.28;;;0.90;;
14975;SDS011;7584;60.468;25.126;2023-07-16T09:56:32;1.10;;;0.90;;
14975;SDS011;7584;60.468;25.126;2023-07-16T09:58:58;2.55;;;0.98;;
14975;SDS011;7584;60.468;25.126;2023-07-16T10:01:24;2.15;;;1.02;;
14975;SDS011;7584;60.468;25.126;2023-07-16T10:03:50;3.17;;;1.15;;
14975;SDS011;7584;60.468;25.126;2023-07-16T10:06:16;1.20;;;0.90;;
14975;SDS011;7584;60.468;25.126;2023-07-16T10:08:48;2.35;;;0.70;;
14975;SDS011;7584;60.468;25.126;2023-07-16T10:11:19;1.25;;;0.88;;
14975;SDS011;7584;60.468;25.126;2023-07-16T10:13:48;1.00;;;0.90;;
14975;SDS011;7584;60.468;25.126;2023-07-16T10:16:20;2.15;;;0.98;;
14975;SDS011;7584;60.468;25.126;2023-07-16T10:18:52;1.38;;;0.80;;
14975;SDS011;7584;60.468;25.126;2023-07-16T10:21:24;1.85;;;0.90;;
14975;SDS011;7584;60.468;25.126;2023-07-16T10:23:56;2.92;;;0.98;;
14975;SDS011;7584;60.468;25.126;2023-07-16T10:26:25;0.82;;;0.68;;
14975;SDS011;7584;60.468;25.126;2023-07-16T10:28:51;1.15;;;0.90;;
14975;SDS011;7584;60.468;25.126;2023-07-16T10:31:17;3.35;;;0.98;;
14975;SDS011;7584;60.468;25.126;2023-07-16T10:33:42;1.58;;;0.82;;
14975;SDS011;7584;60.468;25.126;2023-07-16T10:36:07;1.70;;;1.00;;
14975;SDS011;7584;60.468;25.126;2023-07-16T10:38:40;3.22;;;1.00;;
14975;SDS011;7584;60.468;25.126;2023-07-16T10:41:05;2.58;;;0.80;;
14975;SDS011;7584;60.468;25.126;2023-07-16T10:43:31;0.98;;;0.70;;
14975;SDS011;7584;60.468;25.126;2023-07-16T10:45:56;2.88;;;1.02;;
14975;SDS011;7584;60.468;25.126;2023-07-16T10:48:24;3.08;;;0.85;;
14975;SDS011;7584;60.468;25.126;2023-07-16T10:50:52;1.42;;;0.77;;
14975;SDS011;7584;60.468;25.126;2023-07-16T10:53:18;1.80;;;1.08;;
14975;SDS011;7584;60.468;25.126;2023-07-16T10:55:44;4.57;;;1.10;;
14975;SDS011;7584;60.468;25.126;2023-07-16T10:58:09;1.15;;;0.77;;
14975;SDS011;7584;60.468;25.126;2023-07-16T11:00:41;3.72;;;1.00;;
14975;SDS011;7584;60.468;25.126;2023-07-16T11:03:06;3.47;;;0.80;;
14975;SDS011;7584;60.468;25.126;2023-07-16T11:05:32;1.40;;;0.95;;
14975;SDS011;7584;60.468;25.126;2023-07-16T11:07:57;2.88;;;0.82;;
14975;SDS011;7584;60.468;25.126;2023-07-16T11:10:23;1.42;;;1.00;;
14975;SDS011;7584;60.468;25.126;2023-07-16T11:12:51;0.75;;;0.70;;
14975;SDS011;7584;60.468;25.126;2023-07-16T11:15:18;2.15;;;1.10;;
14975;SDS011;7584;60.468;25.126;2023-07-16T11:17:43;1.83;;;0.90;;
14975;SDS011;7584;60.468;25.126;2023-07-16T11:20:13;1.67;;;0.93;;
14975;SDS011;7584;60.468;25.126;2023-07-16T11:22:38;2.05;;;1.13;;
14975;SDS011;7584;60.468;25.126;2023-07-16T11:25:04;1.55;;;0.90;;
14975;SDS011;7584;60.468;25.126;2023-07-16T11:27:35;3.63;;;1.00;;
14975;SDS011;7584;60.468;25.126;2023-07-16T11:30:01;1.30;;;0.90;;
14975;SDS011;7584;60.468;25.126;2023-07-16T11:34:52;1.42;;;1.05;;
14975;SDS011;7584;60.468;25.126;2023-07-16T11:37:18;1.67;;;0.90;;
14975;SDS011;7584;60.468;25.126;2023-07-16T11:39:45;1.40;;;0.80;;
14975;SDS011;7584;60.468;25.126;2023-07-16T11:42:11;3.72;;;1.10;;
14975;SDS011;7584;60.468;25.126;2023-07-16T11:44:36;3.70;;;1.35;;
14975;SDS011;7584;60.468;25.126;2023-07-16T11:47:05;2.60;;;1.60;;
14975;SDS011;7584;60.468;25.126;2023-07-16T11:49:30;2.80;;;1.27;;
14975;SDS011;7584;60.468;25.126;2023-07-16T11:51:56;3.80;;;1.27;;
14975;SDS011;7584;60.468;25.126;2023-07-16T11:54:21;4.30;;;1.20;;
14975;SDS011;7584;60.468;25.126;2023-07-16T11:56:47;3.03;;;1.60;;
14975;SDS011;7584;60.468;25.126;2023-07-16T11:59:13;2.65;;;1.27;;
14975;SDS011;7584;60.468;25.126;2023-07-16T12:01:38;2.70;;;1.02;;
14975;SDS011;7584;60.468;25.126;2023-07-16T12:04:03;2.25;;;1.13;;
14975;SDS011;7584;60.468;25.126;2023-07-16T12:06:28;1.63;;;1.10;;
14975;SDS011;7584;60.468;25.126;2023-07-16T12:08:54;1.58;;;1.10;;
14975;SDS011;7584;60.468;25.126;2023-07-16T12:11:20;3.05;;;1.30;;
14975;SDS011;7584;60.468;25.126;2023-07-16T12:13:45;1.42;;;1.05;;
14975;SDS011;7584;60.468;25.126;2023-07-16T12:16:10;1.55;;;1.00;;
14975;SDS011;7584;60.468;25.126;2023-07-16T12:18:36;1.20;;;1.10;;
14975;SDS011;7584;60.468;25.126;2023-07-16T12:21:01;2.08;;;1.00;;
14975;SDS011;7584;60.468;25.126;2023-07-16T12:23:27;1.98;;;1.13;;
14975;SDS011;7584;60.468;25.126;2023-07-16T12:25:52;1.52;;;1.10;;
14975;SDS011;7584;60.468;25.126;2023-07-16T12:28:17;1.23;;;1.08;;
14975;SDS011;7584;60.468;25.126;2023-07-16T12:30:43;1.38;;;1.17;;
14975;SDS011;7584;60.468;25.126;2023-07-16T12:33:08;3.40;;;1.10;;
14975;SDS011;7584;60.468;25.126;2023-07-16T12:35:33;2.25;;;1.10;;
14975;SDS011;7584;60.468;25.126;2023-07-16T12:37:59;3.15;;;1.10;;
14975;SDS011;7584;60.468;25.126;2023-07-16T12:40:24;1.58;;;1.08;;
14975;SDS011;7584;60.468;25.126;2023-07-16T12:42:50;3.08;;;0.95;;
14975;SDS011;7584;60.468;25.126;2023-07-16T12:45:15;1.58;;;1.10;;
14975;SDS011;7584;60.468;25.126;2023-07-16T12:47:40;3.58;;;1.08;;
14975;SDS011;7584;60.468;25.126;2023-07-16T12:50:07;3.47;;;1.08;;
14975;SDS011;7584;60.468;25.126;2023-07-16T12:52:32;2.35;;;1.10;;
14975;SDS011;7584;60.468;25.126;2023-07-16T12:54:57;2.10;;;1.20;;
14975;SDS011;7584;60.468;25.126;2023-07-16T12:57:23;1.65;;;1.05;;
14975;SDS011;7584;60.468;25.126;2023-07-16T12:59:48;2.28;;;1.00;;
14975;SDS011;7584;60.468;25.126;2023-07-16T13:02:13;2.53;;;0.90;;
14975;SDS011;7584;60.468;25.126;2023-07-16T13:04:38;1.20;;;1.10;;
14975;SDS011;7584;60.468;25.126;2023-07-16T13:07:04;1.92;;;1.00;;
14975;SDS011;7584;60.468;25.126;2023-07-16T13:09:29;1.85;;;0.88;;
14975;SDS011;7584;60.468;25.126;2023-07-16T13:11:55;3.28;;;1.15;;
14975;SDS011;7584;60.468;25.126;2023-07-16T13:14:20;2.22;;;0.98;;
14975;SDS011;7584;60.468;25.126;2023-07-16T13:16:45;1.40;;;0.82;;
14975;SDS011;7584;60.468;25.126;2023-07-16T13:19:10;1.98;;;1.10;;
14975;SDS011;7584;60.468;25.126;2023-07-16T13:21:36;1.60;;;1.08;;
14975;SDS011;7584;60.468;25.126;2023-07-16T13:24:01;1.73;;;1.20;;
14975;SDS011;7584;60.468;25.126;2023-07-16T13:26:26;2.03;;;1.00;;
14975;SDS011;7584;60.468;25.126;2023-07-16T13:28:52;2.38;;;1.08;;
14975;SDS011;7584;60.468;25.126;2023-07-16T13:31:17;1.70;;;1.17;;
14975;SDS011;7584;60.468;25.126;2023-07-16T13:33:43;3.38;;;1.25;;
14975;SDS011;7584;60.468;25.126;2023-07-16T13:36:08;4.22;;;1.30;;
14975;SDS011;7584;60.468;25.126;2023-07-16T13:38:33;1.05;;;0.95;;
14975;SDS011;7584;60.468;25.126;2023-07-16T13:40:59;1.92;;;1.15;;
14975;SDS011;7584;60.468;25.126;2023-07-16T13:43:24;2.30;;;1.42;;
14975;SDS011;7584;60.468;25.126;2023-07-16T13:45:49;3.35;;;1.30;;
14975;SDS011;7584;60.468;25.126;2023-07-16T13:48:14;3.97;;;1.23;;
14975;SDS011;7584;60.468;25.126;2023-07-16T13:50:40;2.08;;;1.10;;
14975;SDS011;7584;60.468;25.126;2023-07-16T13:53:05;2.65;;;1.10;;
14975;SDS011;7584;60.468;25.126;2023-07-16T13:55:31;2.65;;;0.95;;
14975;SDS011;7584;60.468;25.126;2023-07-16T13:57:56;2.83;;;1.00;;
14975;SDS011;7584;60.468;25.126;2023-07-16T14:00:22;1.40;;;1.00;;
14975;SDS011;7584;60.468;25.126;2023-07-16T14:02:47;1.15;;;0.80;;
14975;SDS011;7584;60.468;25.126;2023-07-16T14:05:12;2.85;;;1.08;;
14975;SDS011;7584;60.468;25.126;2023-07-16T14:07:38;2.50;;;1.25;;
14975;SDS011;7584;60.468;25.126;2023-07-16T14:10:03;3.55;;;0.95;;
14975;SDS011;7584;60.468;25.126;2023-07-16T14:12:29;3.88;;;1.20;;
14975;SDS011;7584;60.468;25.126;2023-07-16T14:14:54;2.65;;;0.93;;
14975;SDS011;7584;60.468;25.126;2023-07-16T14:17:20;2.72;;;1.35;;
14975;SDS011;7584;60.468;25.126;2023-07-16T14:19:45;1.42;;;1.05;;
14975;SDS011;7584;60.468;25.126;2023-07-16T14:22:10;2.60;;;0.95;;
14975;SDS011;7584;60.468;25.126;2023-07-16T14:24:37;2.53;;;1.08;;
14975;SDS011;7584;60.468;25.126;2023-07-16T14:27:04;2.97;;;2.40;;
14975;SDS011;7584;60.468;25.126;2023-07-16T14:29:31;4.75;;;3.45;;
14975;SDS011;7584;60.468;25.126;2023-07-16T14:31:56;2.13;;;1.00;;
14975;SDS011;7584;60.468;25.126;2023-07-16T14:34:22;1.75;;;1.02;;
14975;SDS011;7584;60.468;25.126;2023-07-16T14:36:48;1.67;;;0.95;;
14975;SDS011;7584;60.468;25.126;2023-07-16T14:39:13;3.33;;;1.08;;
14975;SDS011;7584;60.468;25.126;2023-07-16T14:41:38;2.47;;;1.20;;
14975;SDS011;7584;60.468;25.126;2023-07-16T14:44:04;2.60;;;1.10;;
14975;SDS011;7584;60.468;25.126;2023-07-16T14:46:30;1.83;;;1.00;;
14975;SDS011;7584;60.468;25.126;2023-07-16T14:48:55;2.60;;;0.90;;
14975;SDS011;7584;60.468;25.126;2023-07-16T14:51:22;1.65;;;1.20;;